createdAt,value
2022-09-04T00:00:08.702Z,20.90
2022-09-04T00:01:26.087Z,20.89
2022-09-04T00:02:47.096Z,20.88
2022-09-04T00:03:59.166Z,20.86
2022-09-04T00:05:06.136Z,20.87
2022-09-04T00:06:14.534Z,20.84
2022-09-04T00:07:24.339Z,20.85
2022-09-04T00:08:42.723Z,20.83
2022-09-04T00:09:53.894Z,20.83
2022-09-04T00:11:00.572Z,20.83
2022-09-04T00:12:06.430Z,20.83
2022-09-04T00:13:13.396Z,20.82
2022-09-04T00:14:18.528Z,20.82
2022-09-04T00:15:25.047Z,20.82
2022-09-04T00:16:34.403Z,20.81
2022-09-04T00:17:42.653Z,20.80
2022-09-04T00:18:52.122Z,20.80
2022-09-04T00:19:59.558Z,20.79
2022-09-04T00:21:07.210Z,20.79
2022-09-04T00:22:25.910Z,20.79
2022-09-04T00:23:35.416Z,20.79
2022-09-04T00:24:41.732Z,20.78
2022-09-04T00:25:53.382Z,20.77
2022-09-04T00:27:02.354Z,20.77
2022-09-04T00:28:09.492Z,20.76
2022-09-04T00:29:21.275Z,20.76
2022-09-04T00:30:23.695Z,20.76
2022-09-04T00:31:33.971Z,20.75
2022-09-04T00:32:41.470Z,20.75
2022-09-04T00:33:51.902Z,20.73
2022-09-04T00:35:10.441Z,20.74
2022-09-04T00:36:14.569Z,20.73
2022-09-04T00:37:23.042Z,20.73
2022-09-04T00:38:37.581Z,20.70
2022-09-04T00:39:46.715Z,20.69
2022-09-04T00:40:58.736Z,20.68
2022-09-04T00:42:14.504Z,20.69
2022-09-04T00:43:50.363Z,20.68
2022-09-04T00:45:05.322Z,20.67
2022-09-04T00:46:31.010Z,20.66
2022-09-04T00:48:13.043Z,20.65
2022-09-04T00:49:36.427Z,20.63
2022-09-04T00:50:57.221Z,20.62
2022-09-04T00:52:11.964Z,20.62
2022-09-04T00:53:32.699Z,20.60
2022-09-04T00:54:48.808Z,20.59
2022-09-04T00:56:03.121Z,20.59
2022-09-04T00:57:43.240Z,20.58
2022-09-04T00:59:06.086Z,20.57
2022-09-04T01:00:10.416Z,20.58
2022-09-04T01:01:22.321Z,20.55
2022-09-04T01:02:38.167Z,20.55
2022-09-04T01:03:52.639Z,20.55
2022-09-04T01:05:03.226Z,20.52
2022-09-04T01:06:32.709Z,20.53
2022-09-04T01:07:49.467Z,20.52
2022-09-04T01:09:13.340Z,20.51
2022-09-04T01:10:41.758Z,20.50
2022-09-04T01:11:53.704Z,20.49
2022-09-04T01:13:04.712Z,20.49
2022-09-04T01:14:14.644Z,20.48
2022-09-04T01:15:25.526Z,20.48
2022-09-04T01:16:34.059Z,20.48
2022-09-04T01:17:43.017Z,20.47
2022-09-04T01:18:53.157Z,20.47
2022-09-04T01:20:03.734Z,20.47
2022-09-04T01:21:35.304Z,20.47
2022-09-04T01:22:53.840Z,20.46
2022-09-04T01:24:20.070Z,20.46
2022-09-04T01:25:34.728Z,20.44
2022-09-04T01:26:47.765Z,20.43
2022-09-04T01:27:54.678Z,20.42
2022-09-04T01:29:11.482Z,20.43
2022-09-04T01:30:16.545Z,20.41
2022-09-04T01:31:28.058Z,20.41
2022-09-04T01:32:51.925Z,20.41
2022-09-04T01:34:05.664Z,20.40
2022-09-04T01:35:20.302Z,20.40
2022-09-04T01:36:41.198Z,20.39
2022-09-04T01:37:53.915Z,20.39
2022-09-04T01:38:58.584Z,20.38
2022-09-04T01:40:16.842Z,20.38
2022-09-04T01:41:23.355Z,20.37
2022-09-04T01:42:35.715Z,20.37
2022-09-04T01:43:37.475Z,20.36
2022-09-04T01:44:40.839Z,20.38
2022-09-04T01:46:11.932Z,20.36
2022-09-04T01:47:22.358Z,20.37
2022-09-04T01:48:37.103Z,20.35
2022-09-04T01:49:46.243Z,20.36
2022-09-04T01:50:52.601Z,20.36
2022-09-04T01:52:06.416Z,20.34
2022-09-04T01:53:12.790Z,20.33
2022-09-04T01:54:35.233Z,20.32
2022-09-04T01:55:44.871Z,20.31
2022-09-04T01:57:04.391Z,20.29
2022-09-04T01:58:17.412Z,20.27
2022-09-04T01:59:27.795Z,20.27
2022-09-04T02:00:35.436Z,20.25
2022-09-04T02:01:47.501Z,20.25
2022-09-04T02:02:57.345Z,20.25
2022-09-04T02:04:08.172Z,20.25
2022-09-04T02:05:19.867Z,20.23
2022-09-04T02:06:30.697Z,20.25
2022-09-04T02:07:37.304Z,20.23
2022-09-04T02:08:56.894Z,20.23
2022-09-04T02:10:08.286Z,20.22
2022-09-04T02:11:16.302Z,20.21
2022-09-04T02:12:31.025Z,20.21
2022-09-04T02:13:44.916Z,20.20
2022-09-04T02:14:56.911Z,20.18
2022-09-04T02:16:11.110Z,20.18
2022-09-04T02:17:18.555Z,20.18
2022-09-04T02:18:33.908Z,20.18
2022-09-04T02:19:47.680Z,20.18
2022-09-04T02:20:56.560Z,20.17
2022-09-04T02:22:07.772Z,20.16
2022-09-04T02:23:18.245Z,20.15
2022-09-04T02:24:29.767Z,20.13
2022-09-04T02:25:36.193Z,20.13
2022-09-04T02:26:46.890Z,20.12
2022-09-04T02:27:56.207Z,20.11
2022-09-04T02:29:09.515Z,20.10
2022-09-04T02:30:13.952Z,20.11
2022-09-04T02:31:22.411Z,20.10
2022-09-04T02:32:30.945Z,20.09
2022-09-04T02:33:39.449Z,20.09
2022-09-04T02:34:46.861Z,20.08
2022-09-04T02:35:58.489Z,20.05
2022-09-04T02:37:06.409Z,20.06
2022-09-04T02:38:19.413Z,20.04
2022-09-04T02:39:33.902Z,20.04
2022-09-04T02:40:47.488Z,20.03
2022-09-04T02:42:03.752Z,20.03
2022-09-04T02:43:19.614Z,20.02
2022-09-04T02:44:34.384Z,20.02
2022-09-04T02:45:44.816Z,20.01
2022-09-04T02:47:02.758Z,20.00
2022-09-04T02:48:13.931Z,20.00
2022-09-04T02:49:25.715Z,19.99
2022-09-04T02:50:46.187Z,19.98
2022-09-04T02:52:01.759Z,19.98
2022-09-04T02:53:18.386Z,19.97
2022-09-04T02:54:40.116Z,19.95
2022-09-04T02:55:56.384Z,19.93
2022-09-04T02:57:09.834Z,19.93
2022-09-04T02:58:19.724Z,19.91
2022-09-04T02:59:36.269Z,19.90
2022-09-04T03:00:46.273Z,19.90
2022-09-04T03:01:54.192Z,19.88
2022-09-04T03:03:03.505Z,19.90
2022-09-04T03:04:14.165Z,19.89
2022-09-04T03:05:20.779Z,19.87
2022-09-04T03:06:33.040Z,19.87
2022-09-04T03:07:37.345Z,19.87
2022-09-04T03:08:47.030Z,19.86
2022-09-04T03:09:55.203Z,19.86
2022-09-04T03:11:03.785Z,19.85
2022-09-04T03:12:26.583Z,19.86
2022-09-04T03:13:33.380Z,19.84
2022-09-04T03:14:45.311Z,19.82
2022-09-04T03:15:55.205Z,19.83
2022-09-04T03:17:03.383Z,19.80
2022-09-04T03:18:16.820Z,19.81
2022-09-04T03:19:23.446Z,19.80
2022-09-04T03:20:29.255Z,19.81
2022-09-04T03:21:40.666Z,19.81
2022-09-04T03:22:49.459Z,19.80
2022-09-04T03:23:55.695Z,19.80
2022-09-04T03:25:12.978Z,19.80
2022-09-04T03:26:24.727Z,19.78
2022-09-04T03:27:28.466Z,19.76
2022-09-04T03:28:40.629Z,19.76
2022-09-04T03:29:53.610Z,19.75
2022-09-04T03:30:58.302Z,19.75
2022-09-04T03:32:17.178Z,19.75
2022-09-04T03:33:29.617Z,19.74
2022-09-04T03:34:45.707Z,19.74
2022-09-04T03:35:55.394Z,19.73
2022-09-04T03:37:13.393Z,19.72
2022-09-04T03:38:23.965Z,19.71
2022-09-04T03:39:35.781Z,19.71
2022-09-04T03:40:42.894Z,19.70
2022-09-04T03:41:55.366Z,19.70
2022-09-04T03:43:11.283Z,19.68
2022-09-04T03:44:24.410Z,19.68
2022-09-04T03:45:39.019Z,19.68
2022-09-04T03:46:52.882Z,19.68
2022-09-04T03:48:10.010Z,19.66
2022-09-04T03:49:22.451Z,19.67
2022-09-04T03:50:32.636Z,19.66
2022-09-04T03:51:43.924Z,19.66
2022-09-04T03:52:57.578Z,19.66
2022-09-04T03:54:07.953Z,19.66
2022-09-04T03:55:25.627Z,19.65
2022-09-04T03:56:39.774Z,19.64
2022-09-04T03:58:04.722Z,19.63
2022-09-04T03:59:08.617Z,19.61
2022-09-04T04:00:18.147Z,19.61
2022-09-04T04:01:31.143Z,19.60
2022-09-04T04:02:48.203Z,19.59
2022-09-04T04:04:05.460Z,19.60
2022-09-04T04:05:29.092Z,19.59
2022-09-04T04:06:38.207Z,19.58
2022-09-04T04:07:50.176Z,19.57
2022-09-04T04:09:11.780Z,19.57
2022-09-04T04:10:24.976Z,19.55
2022-09-04T04:11:55.603Z,19.54
2022-09-04T04:13:19.314Z,19.54
2022-09-04T04:14:46.105Z,19.53
2022-09-04T04:16:04.232Z,19.51
2022-09-04T04:17:23.732Z,19.51
2022-09-04T04:18:40.531Z,19.51
2022-09-04T04:19:53.131Z,19.50
2022-09-04T04:21:07.199Z,19.49
2022-09-04T04:22:33.275Z,19.48
2022-09-04T04:24:07.585Z,19.48
2022-09-04T04:25:25.144Z,19.46
2022-09-04T04:26:40.681Z,19.47
2022-09-04T04:27:55.973Z,19.45
2022-09-04T04:29:16.287Z,19.45
2022-09-04T04:30:18.747Z,19.45
2022-09-04T04:31:29.177Z,19.45
2022-09-04T04:32:54.057Z,19.45
2022-09-04T04:34:06.726Z,19.44
2022-09-04T04:35:25.085Z,19.44
2022-09-04T04:36:36.683Z,19.43
2022-09-04T04:37:51.908Z,19.42
2022-09-04T04:39:15.431Z,19.42
2022-09-04T04:40:32.682Z,19.42
2022-09-04T04:42:07.751Z,19.41
2022-09-04T04:43:17.498Z,19.42
2022-09-04T04:44:48.165Z,19.41
2022-09-04T04:45:57.025Z,19.40
2022-09-04T04:47:11.475Z,19.41
2022-09-04T04:48:52.942Z,19.40
2022-09-04T04:50:08.182Z,19.39
2022-09-04T04:51:23.087Z,19.39
2022-09-04T04:52:40.844Z,19.38
2022-09-04T04:53:52.096Z,19.39
2022-09-04T04:55:16.447Z,19.39
2022-09-04T04:56:26.378Z,19.38
2022-09-04T04:57:36.690Z,19.39
2022-09-04T04:58:58.793Z,19.38
2022-09-04T05:00:08.841Z,19.37
2022-09-04T05:01:26.236Z,19.38
2022-09-04T05:02:32.045Z,19.38
2022-09-04T05:03:46.001Z,19.38
2022-09-04T05:04:54.844Z,19.39
2022-09-04T05:06:07.011Z,19.40
2022-09-04T05:07:19.633Z,19.41
2022-09-04T05:08:36.773Z,19.40
2022-09-04T05:09:47.880Z,19.39
2022-09-04T05:10:56.027Z,19.42
2022-09-04T05:12:03.405Z,19.41
2022-09-04T05:13:19.007Z,19.41
2022-09-04T05:14:33.406Z,19.41
2022-09-04T05:15:58.449Z,19.41
2022-09-04T05:17:14.926Z,19.41
2022-09-04T05:18:23.055Z,19.42
2022-09-04T05:19:33.577Z,19.41
2022-09-04T05:20:42.659Z,19.42
2022-09-04T05:21:54.600Z,19.43
2022-09-04T05:23:06.580Z,19.43
2022-09-04T05:24:17.355Z,19.43
2022-09-04T05:25:25.652Z,19.44
2022-09-04T05:26:34.406Z,19.44
2022-09-04T05:27:54.067Z,19.43
2022-09-04T05:29:03.038Z,19.44
2022-09-04T05:30:10.423Z,19.45
2022-09-04T05:31:21.931Z,19.44
2022-09-04T05:32:29.058Z,19.45
2022-09-04T05:33:39.513Z,19.46
2022-09-04T05:35:02.056Z,19.45
2022-09-04T05:36:12.528Z,19.48
2022-09-04T05:37:22.159Z,19.49
2022-09-04T05:38:37.124Z,19.52
2022-09-04T05:39:54.631Z,19.53
2022-09-04T05:41:07.050Z,19.60
2022-09-04T05:42:23.921Z,19.64
2022-09-04T05:43:40.832Z,19.71
2022-09-04T05:44:58.189Z,19.77
2022-09-04T05:46:08.372Z,19.83
2022-09-04T05:47:27.503Z,19.90
2022-09-04T05:48:43.508Z,19.94
2022-09-04T05:50:08.317Z,19.97
2022-09-04T05:51:45.083Z,20.01
2022-09-04T05:53:19.179Z,20.07
2022-09-04T05:54:39.148Z,20.12
2022-09-04T05:56:09.511Z,20.15
2022-09-04T05:57:21.968Z,20.18
2022-09-04T05:58:50.116Z,20.23
2022-09-04T06:00:12.588Z,20.26
2022-09-04T06:01:30.265Z,20.31
2022-09-04T06:03:05.780Z,20.34
2022-09-04T06:04:47.285Z,20.38
2022-09-04T06:06:07.480Z,20.39
2022-09-04T06:07:18.225Z,20.43
2022-09-04T06:08:33.414Z,20.45
2022-09-04T06:09:51.821Z,20.48
2022-09-04T06:11:09.313Z,20.54
2022-09-04T06:12:26.470Z,20.60
2022-09-04T06:13:59.298Z,20.63
2022-09-04T06:15:20.926Z,20.67
2022-09-04T06:16:37.273Z,20.69
2022-09-04T06:18:06.802Z,20.71
2022-09-04T06:19:28.950Z,20.75
2022-09-04T06:20:59.145Z,20.75
2022-09-04T06:22:15.268Z,20.79
2022-09-04T06:23:43.842Z,20.83
2022-09-04T06:25:13.572Z,20.83
2022-09-04T06:26:41.187Z,20.84
2022-09-04T06:28:04.293Z,20.89
2022-09-04T06:29:18.173Z,20.92
2022-09-04T06:30:20.021Z,20.96
2022-09-04T06:31:47.972Z,20.98
2022-09-04T06:33:14.107Z,21.00
2022-09-04T06:34:25.722Z,21.01
2022-09-04T06:35:44.496Z,21.01
2022-09-04T06:36:59.942Z,21.01
2022-09-04T06:38:28.373Z,21.02
2022-09-04T06:39:47.274Z,21.02
2022-09-04T06:41:08.689Z,21.02
2022-09-04T06:42:36.615Z,21.03
2022-09-04T06:43:44.385Z,21.05
2022-09-04T06:45:09.731Z,21.04
2022-09-04T06:46:21.516Z,21.05
2022-09-04T06:47:33.751Z,21.05
2022-09-04T06:48:47.324Z,21.05
2022-09-04T06:50:07.255Z,21.06
2022-09-04T06:51:32.331Z,21.04
2022-09-04T06:52:45.825Z,21.03
2022-09-04T06:54:00.253Z,21.04
2022-09-04T06:55:13.635Z,21.06
2022-09-04T06:56:42.486Z,21.06
2022-09-04T06:58:09.007Z,21.06
2022-09-04T06:59:44.417Z,21.06
2022-09-04T07:00:53.363Z,21.06
2022-09-04T07:02:08.132Z,21.05
2022-09-04T07:03:45.933Z,21.05
2022-09-04T07:04:59.698Z,21.07
2022-09-04T07:06:11.278Z,21.09
2022-09-04T07:07:23.045Z,21.09
2022-09-04T07:08:39.475Z,21.10
2022-09-04T07:09:46.364Z,21.13
2022-09-04T07:11:00.501Z,21.14
2022-09-04T07:12:33.801Z,21.12
2022-09-04T07:14:07.762Z,21.14
2022-09-04T07:15:29.116Z,21.14
2022-09-04T07:16:38.915Z,21.15
2022-09-04T07:17:46.504Z,21.16
2022-09-04T07:19:38.403Z,21.16
2022-09-04T07:20:56.601Z,21.16
2022-09-04T07:22:11.660Z,21.19
2022-09-04T07:23:25.658Z,21.21
2022-09-04T07:24:48.369Z,21.23
2022-09-04T07:26:02.411Z,21.26
2022-09-04T07:27:12.130Z,21.28
2022-09-04T07:28:49.404Z,21.30
2022-09-04T07:30:00.816Z,21.35
2022-09-04T07:31:09.310Z,21.36
2022-09-04T07:32:18.866Z,21.38
2022-09-04T07:33:31.767Z,21.41
2022-09-04T07:34:42.811Z,21.43
2022-09-04T07:35:51.558Z,21.46
2022-09-04T07:36:59.125Z,21.50
2022-09-04T07:38:09.617Z,21.53
2022-09-04T07:39:19.132Z,21.56
2022-09-04T07:40:28.050Z,21.57
2022-09-04T07:41:40.494Z,21.59
2022-09-04T07:42:49.440Z,21.60
2022-09-04T07:44:03.750Z,21.61
2022-09-04T07:45:16.490Z,21.63
2022-09-04T07:46:26.381Z,21.64
2022-09-04T07:47:35.246Z,21.67
2022-09-04T07:48:44.191Z,21.69
2022-09-04T07:50:00.681Z,21.71
2022-09-04T07:51:10.512Z,21.74
2022-09-04T07:52:22.684Z,21.73
2022-09-04T07:53:35.839Z,21.74
2022-09-04T07:54:58.547Z,21.76
2022-09-04T07:56:06.565Z,21.77
2022-09-04T07:57:32.892Z,21.78
2022-09-04T07:59:20.388Z,21.79
2022-09-04T08:00:23.543Z,21.80
2022-09-04T08:01:42.297Z,21.82
2022-09-04T08:03:25.524Z,21.84
2022-09-04T08:05:02.467Z,21.86
2022-09-04T08:06:18.296Z,21.86
2022-09-04T08:07:30.203Z,21.89
2022-09-04T08:08:56.009Z,21.90
2022-09-04T08:10:13.547Z,21.92
2022-09-04T08:11:32.273Z,21.95
2022-09-04T08:12:56.255Z,21.98
2022-09-04T08:14:17.098Z,22.03
2022-09-04T08:15:21.964Z,22.03
2022-09-04T08:16:31.082Z,22.08
2022-09-04T08:17:49.141Z,22.10
2022-09-04T08:19:06.880Z,22.12
2022-09-04T08:20:19.509Z,22.13
2022-09-04T08:21:28.835Z,22.16
2022-09-04T08:22:42.507Z,22.16
2022-09-04T08:24:11.763Z,22.19
2022-09-04T08:25:26.884Z,22.19
2022-09-04T08:26:39.129Z,22.23
2022-09-04T08:27:54.319Z,22.23
2022-09-04T08:29:33.333Z,22.26
2022-09-04T08:30:41.272Z,22.27
2022-09-04T08:31:53.909Z,22.30
2022-09-04T08:33:25.642Z,22.32
2022-09-04T08:34:46.179Z,22.38
2022-09-04T08:35:55.335Z,22.40
2022-09-04T08:37:10.573Z,22.43
2022-09-04T08:38:29.056Z,22.44
2022-09-04T08:39:41.725Z,22.46
2022-09-04T08:41:21.326Z,22.49
2022-09-04T08:42:59.096Z,22.50
2022-09-04T08:44:43.771Z,22.52
2022-09-04T08:46:29.896Z,22.55
2022-09-04T08:48:08.022Z,22.56
2022-09-04T08:49:55.159Z,22.58
2022-09-04T08:51:34.738Z,22.62
2022-09-04T08:53:13.694Z,22.65
2022-09-04T08:54:48.870Z,22.69
2022-09-04T08:55:59.592Z,22.73
2022-09-04T08:57:24.072Z,22.77
2022-09-04T08:59:05.276Z,22.79
2022-09-04T09:00:12.471Z,22.84
2022-09-04T09:01:51.654Z,22.87
2022-09-04T09:03:37.829Z,22.88
2022-09-04T09:05:17.370Z,22.91
2022-09-04T09:06:52.229Z,22.94
2022-09-04T09:08:11.654Z,22.96
2022-09-04T09:10:04.883Z,22.98
2022-09-04T09:11:43.535Z,22.98
2022-09-04T09:13:12.723Z,23.01
2022-09-04T09:14:53.034Z,23.04
2022-09-04T09:16:19.784Z,23.07
2022-09-04T09:17:38.366Z,23.11
2022-09-04T09:18:56.376Z,23.15
2022-09-04T09:20:01.342Z,23.19
2022-09-04T09:21:08.355Z,23.22
2022-09-04T09:22:24.748Z,23.27
2022-09-04T09:23:38.694Z,23.30
2022-09-04T09:25:01.267Z,23.32
2022-09-04T09:26:28.327Z,23.35
2022-09-04T09:28:11.329Z,23.35
2022-09-04T09:29:33.962Z,23.38
2022-09-04T09:30:58.777Z,23.41
2022-09-04T09:32:40.027Z,23.44
2022-09-04T09:34:14.909Z,23.46
2022-09-04T09:35:59.201Z,23.49
2022-09-04T09:37:37.460Z,23.51
2022-09-04T09:39:21.576Z,23.55
2022-09-04T09:40:39.672Z,23.59
2022-09-04T09:42:28.329Z,23.61
2022-09-04T09:44:12.730Z,23.65
2022-09-04T09:45:35.869Z,23.68
2022-09-04T09:47:05.115Z,23.72
2022-09-04T09:48:41.902Z,23.74
2022-09-04T09:50:03.615Z,23.76
2022-09-04T09:51:46.310Z,23.80
2022-09-04T09:53:25.631Z,23.83
2022-09-04T09:55:04.339Z,23.87
2022-09-04T09:56:42.788Z,23.90
2022-09-04T09:58:24.869Z,23.92
2022-09-04T09:59:59.528Z,23.95
2022-09-04T10:01:15.180Z,23.98
2022-09-04T10:02:42.384Z,24.02
2022-09-04T10:04:34.449Z,24.04
2022-09-04T10:06:03.045Z,24.07
2022-09-04T10:07:45.217Z,24.10
2022-09-04T10:09:26.142Z,24.13
2022-09-04T10:10:54.003Z,24.18
2022-09-04T10:12:20.000Z,24.24
2022-09-04T10:13:50.195Z,24.27
2022-09-04T10:15:17.990Z,24.31
2022-09-04T10:17:03.534Z,24.32
2022-09-04T10:18:33.352Z,24.31
2022-09-04T10:20:04.962Z,24.32
2022-09-04T10:21:49.528Z,24.33
2022-09-04T10:23:37.250Z,24.35
2022-09-04T10:25:10.803Z,24.38
2022-09-04T10:26:44.281Z,24.43
2022-09-04T10:28:19.921Z,24.46
2022-09-04T10:29:56.371Z,24.51
2022-09-04T10:31:27.781Z,24.57
2022-09-04T10:33:07.953Z,24.60
2022-09-04T10:34:28.957Z,24.62
2022-09-04T10:35:43.749Z,24.67
2022-09-04T10:36:54.063Z,24.70
2022-09-04T10:38:19.510Z,24.74
2022-09-04T10:39:50.647Z,24.76
2022-09-04T10:41:17.100Z,24.75
2022-09-04T10:42:33.690Z,24.80
2022-09-04T10:43:57.981Z,24.85
2022-09-04T10:45:16.925Z,24.90
2022-09-04T10:46:26.191Z,24.94
2022-09-04T10:47:51.212Z,24.96
2022-09-04T10:49:18.968Z,24.96
2022-09-04T10:50:30.268Z,24.98
2022-09-04T10:52:08.792Z,25.00
2022-09-04T10:53:38.753Z,25.04
2022-09-04T10:55:10.157Z,25.04
2022-09-04T10:56:23.293Z,25.05
2022-09-04T10:57:42.000Z,25.09
2022-09-04T10:59:04.093Z,25.11
2022-09-04T11:00:08.816Z,25.15
2022-09-04T11:01:37.551Z,25.18
2022-09-04T11:03:13.745Z,25.20
2022-09-04T11:04:37.601Z,25.23
2022-09-04T11:05:54.065Z,25.29
2022-09-04T11:07:46.909Z,25.30
2022-09-04T11:09:30.491Z,25.31
2022-09-04T11:10:56.504Z,25.36
2022-09-04T11:12:11.413Z,25.42
2022-09-04T11:14:03.622Z,25.48
2022-09-04T11:15:45.090Z,25.53
2022-09-04T11:17:09.304Z,25.63
2022-09-04T11:18:26.850Z,25.72
2022-09-04T11:20:18.528Z,25.76
2022-09-04T11:21:57.024Z,25.83
2022-09-04T11:23:32.625Z,25.90
2022-09-04T11:25:09.332Z,25.94
2022-09-04T11:27:06.050Z,25.95
2022-09-04T11:28:47.242Z,25.96
2022-09-04T11:30:03.369Z,26.02
2022-09-04T11:31:25.322Z,26.03
2022-09-04T11:32:55.984Z,26.08
2022-09-04T11:34:41.646Z,26.10
2022-09-04T11:36:18.824Z,26.10
2022-09-04T11:38:00.852Z,26.11
2022-09-04T11:39:39.381Z,26.07
2022-09-04T11:41:28.038Z,26.04
2022-09-04T11:42:41.333Z,26.06
2022-09-04T11:44:22.201Z,26.11
2022-09-04T11:46:10.880Z,26.13
2022-09-04T11:47:42.282Z,26.18
2022-09-04T11:49:09.900Z,26.23
2022-09-04T11:50:20.464Z,26.31
2022-09-04T11:51:44.931Z,26.37
2022-09-04T11:53:14.937Z,26.42
2022-09-04T11:54:51.737Z,26.44
2022-09-04T11:56:13.705Z,26.45
2022-09-04T11:57:30.135Z,26.49
2022-09-04T11:59:04.884Z,26.48
2022-09-04T12:00:13.329Z,26.49
2022-09-04T12:01:32.894Z,26.48
2022-09-04T12:03:00.954Z,26.48
2022-09-04T12:04:25.821Z,26.46
2022-09-04T12:05:45.618Z,26.49
2022-09-04T12:07:05.575Z,26.52
2022-09-04T12:08:29.470Z,26.53
2022-09-04T12:10:02.183Z,26.54
2022-09-04T12:11:21.951Z,26.55
2022-09-04T12:12:57.144Z,26.57
2022-09-04T12:14:17.363Z,26.60
2022-09-04T12:15:44.442Z,26.62
2022-09-04T12:17:40.723Z,26.62
2022-09-04T12:19:24.033Z,26.63
2022-09-04T12:21:03.006Z,26.65
2022-09-04T12:22:31.082Z,26.69
2022-09-04T12:23:50.583Z,26.77
2022-09-04T12:25:23.625Z,26.87
2022-09-04T12:27:13.818Z,26.96
2022-09-04T12:28:53.224Z,27.06
2022-09-04T12:30:15.777Z,27.12
2022-09-04T12:31:42.356Z,27.18
2022-09-04T12:33:16.315Z,27.24
2022-09-04T12:34:40.759Z,27.29
2022-09-04T12:36:17.762Z,27.35
2022-09-04T12:37:57.966Z,27.36
2022-09-04T12:39:16.080Z,27.43
2022-09-04T12:40:45.164Z,27.52
2022-09-04T12:41:57.537Z,27.62
2022-09-04T12:43:16.276Z,27.72
2022-09-04T12:44:27.205Z,27.81
2022-09-04T12:45:43.206Z,27.86
2022-09-04T12:47:14.019Z,27.89
2022-09-04T12:48:26.207Z,27.94
2022-09-04T12:49:49.360Z,27.97
2022-09-04T12:50:59.786Z,28.05
2022-09-04T12:52:17.375Z,28.10
2022-09-04T12:53:49.306Z,28.16
2022-09-04T12:55:05.135Z,28.19
2022-09-04T12:56:13.567Z,28.20
2022-09-04T12:57:30.281Z,28.22
2022-09-04T12:58:52.305Z,28.24
2022-09-04T13:00:07.059Z,28.26
2022-09-04T13:01:21.038Z,28.29
2022-09-04T13:02:34.486Z,28.34
2022-09-04T13:03:42.838Z,28.41
2022-09-04T13:04:57.406Z,28.45
2022-09-04T13:06:09.248Z,28.47
2022-09-04T13:07:28.011Z,28.46
2022-09-04T13:08:45.543Z,28.44
2022-09-04T13:09:55.214Z,28.47
2022-09-04T13:11:09.644Z,28.48
2022-09-04T13:12:22.207Z,28.47
2022-09-04T13:13:35.820Z,28.46
2022-09-04T13:14:59.919Z,28.42
2022-09-04T13:16:10.126Z,28.43
2022-09-04T13:17:19.754Z,28.43
2022-09-04T13:18:44.748Z,28.42
2022-09-04T13:20:00.464Z,28.41
2022-09-04T13:21:16.001Z,28.37
2022-09-04T13:22:28.180Z,28.35
2022-09-04T13:23:48.744Z,28.31
2022-09-04T13:25:02.333Z,28.31
2022-09-04T13:26:24.352Z,28.32
2022-09-04T13:27:43.918Z,28.30
2022-09-04T13:28:57.082Z,28.29
2022-09-04T13:30:07.098Z,28.31
2022-09-04T13:31:40.946Z,28.32
2022-09-04T13:32:56.758Z,28.33
2022-09-04T13:34:11.086Z,28.32
2022-09-04T13:35:24.933Z,28.32
2022-09-04T13:36:38.721Z,28.31
2022-09-04T13:37:56.528Z,28.32
2022-09-04T13:39:33.095Z,28.30
2022-09-04T13:41:00.716Z,28.31
2022-09-04T13:42:35.826Z,28.26
2022-09-04T13:43:59.458Z,28.27
2022-09-04T13:45:07.488Z,28.30
2022-09-04T13:46:14.611Z,28.36
2022-09-04T13:47:22.936Z,28.42
2022-09-04T13:48:41.609Z,28.47
2022-09-04T13:49:49.322Z,28.52
2022-09-04T13:50:56.740Z,28.55
2022-09-04T13:52:04.126Z,28.58
2022-09-04T13:53:16.235Z,28.60
2022-09-04T13:54:22.560Z,28.60
2022-09-04T13:55:28.372Z,28.61
2022-09-04T13:56:34.225Z,28.60
2022-09-04T13:57:42.568Z,28.56
2022-09-04T13:58:51.118Z,28.53
2022-09-04T13:59:59.042Z,28.50
2022-09-04T14:01:07.079Z,28.51
2022-09-04T14:02:12.540Z,28.50
2022-09-04T14:03:27.119Z,28.51
2022-09-04T14:04:34.715Z,28.50
2022-09-04T14:05:38.464Z,28.50
2022-09-04T14:06:40.462Z,28.49
2022-09-04T14:07:45.993Z,28.47
2022-09-04T14:09:05.054Z,28.45
2022-09-04T14:10:14.598Z,28.42
2022-09-04T14:11:40.444Z,28.39
2022-09-04T14:13:06.428Z,28.37
2022-09-04T14:14:45.893Z,28.35
2022-09-04T14:16:04.166Z,28.36
2022-09-04T14:17:07.104Z,28.39
2022-09-04T14:18:23.129Z,28.41
2022-09-04T14:19:42.480Z,28.43
2022-09-04T14:20:57.975Z,28.41
2022-09-04T14:22:17.226Z,28.38
2022-09-04T14:23:24.323Z,28.36
2022-09-04T14:24:34.704Z,28.34
2022-09-04T14:25:50.859Z,28.33
2022-09-04T14:26:57.869Z,28.33
2022-09-04T14:28:04.419Z,28.31
2022-09-04T14:29:21.246Z,28.31
2022-09-04T14:30:25.226Z,28.31
2022-09-04T14:31:35.110Z,28.31
2022-09-04T14:32:57.810Z,28.28
2022-09-04T14:34:07.407Z,28.26
2022-09-04T14:35:19.044Z,28.26
2022-09-04T14:36:35.322Z,28.26
2022-09-04T14:38:07.342Z,28.25
2022-09-04T14:39:18.087Z,28.23
2022-09-04T14:40:29.276Z,28.24
2022-09-04T14:41:44.671Z,28.23
2022-09-04T14:42:57.993Z,28.26
2022-09-04T14:44:13.904Z,28.25
2022-09-04T14:45:33.302Z,28.27
2022-09-04T14:46:50.806Z,28.27
2022-09-04T14:47:57.531Z,28.29
2022-09-04T14:49:02.958Z,28.32
2022-09-04T14:50:09.581Z,28.33
2022-09-04T14:51:17.089Z,28.33
2022-09-04T14:52:23.914Z,28.35
2022-09-04T14:53:31.761Z,28.36
2022-09-04T14:54:43.532Z,28.37
2022-09-04T14:56:13.104Z,28.35
2022-09-04T14:57:23.761Z,28.37
2022-09-04T14:58:33.450Z,28.39
2022-09-04T14:59:42.746Z,28.42
2022-09-04T15:00:58.672Z,28.41
2022-09-04T15:02:18.300Z,28.42
2022-09-04T15:03:25.524Z,28.43
2022-09-04T15:04:34.947Z,28.45
2022-09-04T15:05:47.306Z,28.45
2022-09-04T15:07:10.750Z,28.47
2022-09-04T15:08:28.611Z,28.45
2022-09-04T15:09:35.836Z,28.47
2022-09-04T15:10:49.994Z,28.47
2022-09-04T15:12:14.387Z,28.48
2022-09-04T15:13:52.699Z,28.45
2022-09-04T15:15:04.268Z,28.47
2022-09-04T15:16:18.193Z,28.48
2022-09-04T15:17:28.129Z,28.49
2022-09-04T15:18:37.111Z,28.52
2022-09-04T15:19:47.627Z,28.51
2022-09-04T15:20:56.050Z,28.50
2022-09-04T15:22:03.170Z,28.50
2022-09-04T15:23:13.808Z,28.48
2022-09-04T15:24:23.313Z,28.49
2022-09-04T15:25:57.681Z,28.47
2022-09-04T15:27:13.471Z,28.42
2022-09-04T15:28:25.207Z,28.42
2022-09-04T15:29:35.894Z,28.40
2022-09-04T15:30:45.543Z,28.37
2022-09-04T15:31:47.621Z,28.35
2022-09-04T15:33:05.528Z,28.35
2022-09-04T15:34:12.162Z,28.34
2022-09-04T15:35:16.961Z,28.35
2022-09-04T15:36:24.689Z,28.35
2022-09-04T15:37:28.352Z,28.34
2022-09-04T15:38:31.847Z,28.33
2022-09-04T15:39:41.035Z,28.32
2022-09-04T15:41:12.719Z,28.30
2022-09-04T15:42:13.239Z,28.26
2022-09-04T15:43:24.674Z,28.26
2022-09-04T15:44:32.792Z,28.25
2022-09-04T15:45:43.800Z,28.25
2022-09-04T15:46:56.301Z,28.25
2022-09-04T15:48:17.096Z,28.25
2022-09-04T15:49:26.892Z,28.26
2022-09-04T15:50:35.131Z,28.25
2022-09-04T15:51:42.308Z,28.25
2022-09-04T15:52:51.433Z,28.24
2022-09-04T15:54:27.055Z,28.22
2022-09-04T15:55:33.742Z,28.23
2022-09-04T15:56:41.933Z,28.21
2022-09-04T15:57:55.895Z,28.22
2022-09-04T15:59:04.802Z,28.21
2022-09-04T16:00:11.388Z,28.20
2022-09-04T16:01:20.082Z,28.18
2022-09-04T16:02:36.286Z,28.17
2022-09-04T16:03:51.835Z,28.15
2022-09-04T16:05:03.092Z,28.13
2022-09-04T16:06:15.984Z,28.13
2022-09-04T16:07:36.701Z,28.12
2022-09-04T16:08:47.005Z,28.11
2022-09-04T16:09:54.156Z,28.10
2022-09-04T16:11:02.275Z,28.10
2022-09-04T16:12:12.673Z,28.07
2022-09-04T16:13:46.307Z,28.05
2022-09-04T16:14:52.536Z,28.02
2022-09-04T16:16:04.026Z,28.03
2022-09-04T16:17:12.821Z,28.02
2022-09-04T16:18:22.185Z,28.02
2022-09-04T16:19:33.058Z,28.02
2022-09-04T16:20:46.817Z,28.00
2022-09-04T16:22:01.639Z,28.00
2022-09-04T16:23:09.010Z,28.00
2022-09-04T16:24:15.266Z,28.00
2022-09-04T16:25:27.234Z,28.00
2022-09-04T16:26:32.275Z,28.00
2022-09-04T16:27:42.854Z,28.00
2022-09-04T16:28:51.279Z,28.00
2022-09-04T16:29:57.399Z,27.99
2022-09-04T16:31:01.903Z,27.99
2022-09-04T16:32:09.576Z,27.98
2022-09-04T16:33:27.985Z,27.96
2022-09-04T16:34:38.315Z,27.96
2022-09-04T16:35:44.018Z,27.95
2022-09-04T16:36:51.392Z,27.94
2022-09-04T16:38:04.206Z,27.94
2022-09-04T16:39:13.336Z,27.93
2022-09-04T16:40:27.343Z,27.92
2022-09-04T16:41:37.476Z,27.93
2022-09-04T16:42:43.957Z,27.92
2022-09-04T16:44:08.762Z,27.92